• Join FlightAware (Why Join?)
  • Login
  • US Flag GB Flag 
05:49 EDT


 

Airport Tracker/Info


-or-


 

Live Flight TrackerFlight Track Log ✈ UAL4380 ✈ 12-Apr-2013 ✈ KIAH - KDAL

Flight Track Log - Related Links

Times and Time Zones

All times are in EDT time to prevent confusion due to time zone crossing. See the UAL4380 flight status page for this flight to view local times or setup timezone preferences in your user account.

Time Position Orientation Groundspeed Altitude Reporting Facility
EDT Latitude Longitude Course Direction KTS MPH feet Rate Location/Type
09:07 29.9597 -95.3439 346° North 162 186 800  Level Houston Center
09:08 29.9500 -95.3764 251° West 206 237 2,900 1,620 Climbing Houston Center
09:09 30.0047 -95.3769 359° North 245 282 4,000 840 Climbing Houston Center
09:10 30.2385 -95.4012 349° North  Level FlightAware Approximate
09:10 30.0261 -95.3736 North 225 259 4,000  Level Houston Center
09:11 30.3245 -95.4202 349° North  Level FlightAware Approximate
09:11 30.0956 -95.3669 North 245 282 6,300  Level Houston Center
09:11 30.1494 -95.3764 351° North 265 305 8,200 2,220 Climbing Houston Center
09:12 30.4101 -95.4410 346° North  Level FlightAware Approximate
09:12 30.1667 -95.3806 348° North 267 307 8,600  Level Houston Center
09:13 30.4951 -95.4653 346° North  Level FlightAware Approximate
09:13 30.2419 -95.3992 348° North 270 311 10,700  Level Houston Center
09:14 30.3236 -95.4208 347° North 293 337 11,700 900 Climbing Houston Center
09:15 30.4181 -95.4456 347° North 336 387 12,600 1,020 Climbing Houston Center
09:16 30.5164 -95.4697 348° North 356 410 13,800 1,260 Climbing Houston Center
09:17 30.6358 -95.4972 349° North 363 418 15,300 1,260 Climbing Houston Center
09:18 30.7353 -95.5200 349° North 360 414 16,500 1,200 Climbing Houston Center
09:19 30.8361 -95.5431 349° North 365 420 17,800 1,200 Climbing Houston Center
09:20 30.9381 -95.5658 349° North 368 423 19,000 1,020 Climbing Houston Center
09:21 31.0411 -95.5892 349° North 372 428 20,000 480 Climbing Houston Center
09:22 31.1528 -95.6144 349° North 395 455 20,000  Level Houston Center
09:22 31.1986 -95.6258 348° North 396 456 20,000  Level Fort Worth Center
09:23 31.3117 -95.6531 348° North 413 475 20,000  Level Fort Worth Center
09:24 31.4253 -95.7067 338° Northwest 405 466 20,000  Level Fort Worth Center
09:25 31.5200 -95.7708 330° Northwest 398 458 20,000  Level Fort Worth Center
09:26 31.6147 -95.8350 330° Northwest 384 442 20,000  Level Fort Worth Center
09:27 31.7011 -95.8947 330° Northwest 382 440 20,000  Level Fort Worth Center
09:28 31.8000 -95.9564 332° Northwest 384 442 20,000  Level Fort Worth Center
09:29 31.8842 -96.0164 329° Northwest 377 434 20,000 -840 Level Fort Worth Center
09:30 31.9786 -96.0786 331° Northwest 382 440 18,400 -2,040 Descending Fort Worth Center
09:31 32.0650 -96.1361 331° Northwest 372 428 16,000 -2,400 Descending Fort Worth Center
09:32 32.1447 -96.1914 330° Northwest 353 406 13,600 -2,220 Descending Fort Worth Center
09:33 32.2142 -96.2372 331° Northwest 327 376 11,600 -1,860 Descending Fort Worth Center
09:34 32.2875 -96.2781 335° Northwest 302 348 9,900 -1,320 Descending Fort Worth Center
09:35 32.3653 -96.3286 331° Northwest 285 328 9,000 -480 Descending Fort Worth Center
09:36 32.4261 -96.3650 333° Northwest 280 322 9,000 -300 Level Fort Worth Center
09:37 32.5017 -96.4083 334° Northwest 280 322 8,400 -780 Descending Fort Worth Center
09:38 32.5625 -96.4472 332° Northwest 274 315 7,500 -960 Descending Fort Worth Center
09:39 32.6339 -96.4908 333° Northwest 269 310 6,500 -960 Descending Fort Worth Center
09:40 32.6903 -96.5297 330° Northwest 264 304 5,600 -960 Descending Fort Worth Center
09:41 32.7492 -96.5883 320° Northwest 252 290 4,600 -900 Descending Fort Worth Center
09:42 32.7975 -96.6350 321° Northwest 246 283 3,800 -840 Descending Fort Worth Center
09:43 32.8522 -96.6939 318° Northwest 246 283 3,000 -480 Descending Fort Worth Center
09:44 32.8833 -96.7500 303° West 247 284 3,000  Level Dallas / Fort Worth TRACON
09:45 32.9333 -96.8000 320° Northwest 223 257 3,000  Level Dallas / Fort Worth TRACON
09:46 32.9500 -96.8333 301° West 171 197 3,000 -420 Level Dallas / Fort Worth TRACON
09:47 32.9500 -96.8833 270° West 170 196 2,300 -720 Descending Dallas / Fort Worth TRACON